Marquette, MI

10:45 AM EST on January 26, 2015 (GMT -0500)
Munising | Change Station
CLOSE
Current Station
Airport
Location: Munising,
Elevation: 614 ft
Nearby Weather Stations

Elev 614 ft 46.41 °N, 86.65 °W | Updated 49 minutes ago

Overcast
Overcast
12 °F
Feels Like 2 °F
N
7
Wind Variable Wind from SSW
Gusts 17 mph

Today
High -- | Low -- °F
--% Chance of Precip.
Yesterday
High -- | Low -- °F
Precip. -- in
8:20 AM 5:44 PM
Waxing Crescent, 44% visible
Pressure 29.96 in
Visibility -9999.0 miles
Clouds
Windchill 2 °F
Dew Point 6 °F
Humidity 77%
Rainfall 0.00 in
Snow Depth Not available.
UV Not available.
Pollen .10 out of 12
Air Quality Not available.
Flu Activity Not available.
METAR KP53 261456Z AUTO 20006KT M11/M14 A2991 RMK AO1 SLP144 T11111144 57015

More Conditions Fewer Conditions

Pressure 29.96 in
Visibility -9999.0 miles
Clouds
Windchill 2 °F
Dew Point 6 °F
Humidity 77%
Rainfall 0.00 in
Snow Depth Not available.
UV Not available.
Pollen .10 out of 12
Air Quality Not available.
Flu Activity Not available.
METAR KP53 261456Z AUTO 20006KT M11/M14 A2991 RMK AO1 SLP144 T11111144 57015

More Conditions Fewer Conditions

10-Day Weather Forecast

Almanac

Astronomy

Jan. 26, 2015 Rise Set
Actual Time
Civil Twilight
Nautical Twilight
Astronomical Twilight
Moon
Length of Visible Light
Length of Day
Tomorrow will be .
, % of the Moon is Illuminated

Today's Extremes

State Highs State Lows

Community

WunderPhotos

Upload Photos

1,790,249 photos uploaded!

WunderBlogs® & News

Nearby

Air Quality

  Air Quality AQ Index Pollutant
Not available.

Snow Depth

Station Depth Elevation

Earthquake Activity

City Distance Mag. Time & Date
Minimum magnitude displayed is 2.5.

Coastal Water Temperatures

Place Temperature

Nearby Weather Stations